Brunswick, ME

1:55 AM EDT on September 03, 2015 (GMT -0400)
Brunswick Police Department | | Change Station
CLOSE
Current Station
Personal Weather Station
Location: Brunswick, ME
Elevation: 89 ft
Nearby Weather Stations

Elev 89 ft 43.91 °N, 69.98 °W | Updated 25 minutes ago

Clear
Clear
66.8 °F
Feels Like 66.8 °F
N
1.0
Wind Variable Wind from NNE
Gusts 1.0 mph

Today
High -- | Low -- °F
--% Chance of Precip.
Yesterday
High -- | Low -- °F
Precip. -- in
6:05 AM 7:12 PM
Waning Gibbous, 73% visible
Pressure 29.84 in
Visibility 7.0 miles
Clouds Clear
Dew Point 65 °F
Humidity 94%
Rainfall 0.00 in
Snow Depth Not available.
UV 0 out of 12
Pollen 8.50 out of 12
Air Quality Not available.
Flu Activity Not available.
METAR KIWI 030553Z AUTO 00000KT 7SM CLR 17/16 A2984 RMK AO2 SLP104 T01720161 10228 20167 58005
Pressure 29.84 in
Visibility 7.0 miles
Clouds Clear
Dew Point 65 °F
Humidity 94%
Rainfall 0.00 in
Snow Depth Not available.
UV 0 out of 12
Pollen 8.50 out of 12
Air Quality Not available.
Flu Activity Not available.
METAR KIWI 030553Z AUTO 00000KT 7SM CLR 17/16 A2984 RMK AO2 SLP104 T01720161 10228 20167 58005

10-Day Weather Forecast

×

Almanac

Astronomy

Sep. 03, 2015 Rise Set
Actual Time
Civil Twilight
Nautical Twilight
Astronomical Twilight
Moon
Length of Visible Light
Length of Day
Tomorrow will be .
, % of the Moon is Illuminated

Today's Extremes

State Highs State Lows

Community

WunderPhotos

Upload Photos

1,851,914 photos uploaded!

WunderBlogs® & News

Nearby

Air Quality

  Air Quality AQ Index Pollutant
Not available.

Snow Depth

Station Depth Elevation

Earthquake Activity

City Distance Mag. Time & Date
Minimum magnitude displayed is 2.5.

Coastal Water Temperatures

Place Temperature

Stations

Nearby Weather Stations

Station Location Temp. Windchill Dew Point Humidity Wind Precip. Elev Updated Type